createdAt,value
2022-12-06T00:01:46.073Z,101099.19
2022-12-06T00:04:18.135Z,101100.19
2022-12-06T00:06:48.761Z,101101.88
2022-12-06T00:09:20.477Z,101100.88
2022-12-06T00:11:48.180Z,101098.25
2022-12-06T00:14:16.169Z,101094.56
2022-12-06T00:16:44.027Z,101102.50
2022-12-06T00:19:13.954Z,101091.41
2022-12-06T00:21:41.788Z,101092.88
2022-12-06T00:24:11.811Z,101094.50
2022-12-06T00:26:42.703Z,101096.56
2022-12-06T00:29:13.645Z,101093.19
2022-12-06T00:31:41.449Z,101097.94
2022-12-06T00:34:09.465Z,101094.09
2022-12-06T00:36:39.284Z,101100.72
2022-12-06T00:39:10.280Z,101090.84
2022-12-06T00:41:38.276Z,101091.88
2022-12-06T00:44:07.842Z,101091.03
2022-12-06T00:46:36.294Z,101091.03
2022-12-06T00:49:05.715Z,101085.94
2022-12-06T00:51:34.552Z,101085.34
2022-12-06T00:54:02.433Z,101086.09
2022-12-06T00:56:30.381Z,101090.63
2022-12-06T00:58:58.205Z,101082.72
2022-12-06T01:01:29.586Z,101080.03
2022-12-06T01:03:59.702Z,101080.19
2022-12-06T01:06:29.232Z,101068.59
2022-12-06T01:08:57.782Z,101077.97
2022-12-06T01:11:25.956Z,101077.72
2022-12-06T01:13:54.084Z,101083.78
2022-12-06T01:16:25.355Z,101086.25
2022-12-06T01:18:56.833Z,101087.94
2022-12-06T01:21:26.306Z,101088.94
2022-12-06T01:23:54.278Z,101088.63
2022-12-06T01:26:24.242Z,101090.25
2022-12-06T01:28:52.284Z,101088.56
2022-12-06T01:31:20.270Z,101098.25
2022-12-06T01:33:48.162Z,101092.88
2022-12-06T01:36:22.318Z,101096.47
2022-12-06T01:38:51.709Z,101094.88
2022-12-06T01:41:20.275Z,101091.47
2022-12-06T01:43:49.236Z,101096.56
2022-12-06T01:46:24.493Z,101094.88
2022-12-06T01:48:56.080Z,101089.47
2022-12-06T01:51:25.692Z,101101.63
2022-12-06T01:53:56.065Z,101092.94
2022-12-06T01:56:23.866Z,101089.34
2022-12-06T01:58:55.584Z,101092.09
2022-12-06T02:01:26.182Z,101080.19
2022-12-06T02:03:56.315Z,101079.09
2022-12-06T02:06:25.713Z,101080.09
2022-12-06T02:08:55.919Z,101080.72
2022-12-06T02:11:23.685Z,101085.94
2022-12-06T02:13:51.931Z,101080.72
2022-12-06T02:16:33.189Z,101084.09
2022-12-06T02:19:14.183Z,101073.19
2022-12-06T02:21:50.376Z,101077.19
2022-12-06T02:24:40.140Z,101076.34
2022-12-06T02:27:33.122Z,101080.72
2022-12-06T02:30:18.402Z,101073.63
2022-12-06T02:32:55.258Z,101075.91
2022-12-06T02:35:30.988Z,101069.69
2022-12-06T02:38:07.699Z,101070.44
2022-12-06T02:40:43.882Z,101066.06
2022-12-06T02:43:16.764Z,101066.84
2022-12-06T02:45:48.954Z,101061.53
2022-12-06T02:48:20.094Z,101064.97
2022-12-06T02:50:56.039Z,101067.59
2022-12-06T02:53:27.241Z,101070.13
2022-12-06T02:55:56.309Z,101071.13
2022-12-06T02:58:24.323Z,101068.59
2022-12-06T03:00:55.308Z,101060.69
2022-12-06T03:03:51.396Z,101062.38
2022-12-06T03:06:41.237Z,101060.53
2022-12-06T03:09:20.579Z,101057.22
2022-12-06T03:11:56.745Z,101060.69
2022-12-06T03:14:27.014Z,101057.97
2022-12-06T03:17:04.477Z,101055.44
2022-12-06T03:19:34.702Z,101058.22
2022-12-06T03:22:07.644Z,101052.81
2022-12-06T03:24:38.609Z,101058.81
2022-12-06T03:27:11.187Z,101052.06
2022-12-06T03:29:44.590Z,101047.69
2022-12-06T03:32:15.314Z,101049.22
2022-12-06T03:34:48.247Z,101048.09
2022-12-06T03:37:19.286Z,101044.72
2022-12-06T03:39:51.013Z,101048.16
2022-12-06T03:42:20.100Z,101040.31
2022-12-06T03:44:48.352Z,101044.72
2022-12-06T03:47:22.642Z,101037.69
2022-12-06T03:49:58.101Z,101038.41
2022-12-06T03:52:26.669Z,101040.00
2022-12-06T03:54:54.597Z,101038.22
2022-12-06T03:57:22.373Z,101041.69
2022-12-06T03:59:50.108Z,101050.72
2022-12-06T04:02:17.925Z,101042.47
2022-12-06T04:04:45.698Z,101044.31
2022-12-06T04:07:14.793Z,101048.69
2022-12-06T04:09:56.389Z,101046.00
2022-12-06T04:12:42.870Z,101047.00
2022-12-06T04:15:11.896Z,101040.78
2022-12-06T04:17:58.090Z,101042.47
2022-12-06T04:20:26.359Z,101045.31
2022-12-06T04:23:04.121Z,101042.69
2022-12-06T04:25:32.399Z,101036.53
2022-12-06T04:28:17.485Z,101044.31
2022-12-06T04:31:02.899Z,101040.78
2022-12-06T04:33:48.829Z,101041.69
2022-12-06T04:36:34.036Z,101037.22
2022-12-06T04:39:03.194Z,101047.00
2022-12-06T04:41:48.388Z,101039.06
2022-12-06T04:44:16.173Z,101042.47
2022-12-06T04:46:44.061Z,101044.31
2022-12-06T04:49:11.877Z,101040.69
2022-12-06T04:51:39.561Z,101038.00
2022-12-06T04:54:08.706Z,101030.31
2022-12-06T04:56:36.677Z,101044.72
2022-12-06T04:59:04.481Z,101040.53
2022-12-06T05:01:32.297Z,101047.34
2022-12-06T05:04:00.096Z,101045.50
2022-12-06T05:06:27.888Z,101046.25
2022-12-06T05:08:55.681Z,101044.41
2022-12-06T05:11:24.950Z,101039.94
2022-12-06T05:13:52.662Z,101036.63
2022-12-06T05:16:20.460Z,101039.16
2022-12-06T05:18:48.280Z,101040.09
2022-12-06T05:21:18.249Z,101040.09
2022-12-06T05:23:45.989Z,101039.25
2022-12-06T05:26:15.801Z,101038.41
2022-12-06T05:28:45.588Z,101037.56
2022-12-06T05:31:14.147Z,101025.75
2022-12-06T05:33:41.930Z,101039.94
2022-12-06T05:36:10.973Z,101036.56
2022-12-06T05:38:38.783Z,101041.72
2022-12-06T05:41:07.468Z,101038.31
2022-12-06T05:43:35.553Z,101022.03
2022-12-06T05:46:04.834Z,101031.16
2022-12-06T05:48:33.317Z,101035.63
2022-12-06T05:51:01.068Z,101026.69
2022-12-06T05:53:29.614Z,101034.53
2022-12-06T05:55:57.496Z,101033.63
2022-12-06T05:58:26.415Z,101015.84
2022-12-06T06:00:54.219Z,100972.22
2022-12-06T06:03:23.343Z,101044.00
2022-12-06T06:05:52.445Z,101036.88
2022-12-06T06:08:20.226Z,101037.72
2022-12-06T06:10:48.066Z,101034.19
2022-12-06T06:13:15.834Z,101034.19
2022-12-06T06:15:43.623Z,101037.72
2022-12-06T06:18:11.281Z,101042.97
2022-12-06T06:20:40.389Z,101031.56
2022-12-06T06:23:08.285Z,101041.28
2022-12-06T06:25:36.085Z,101032.50
2022-12-06T06:28:03.812Z,100994.69
2022-12-06T06:30:31.512Z,101038.50
2022-12-06T06:32:59.195Z,101038.56
2022-12-06T06:35:27.032Z,101039.41
2022-12-06T06:37:56.086Z,101034.94
2022-12-06T06:40:23.883Z,101040.25
2022-12-06T06:42:51.613Z,101011.56
2022-12-06T06:45:23.777Z,101037.47
2022-12-06T06:47:54.629Z,101023.16
2022-12-06T06:50:22.396Z,101041.81
2022-12-06T06:52:50.144Z,101031.00
2022-12-06T06:55:20.180Z,101034.09
2022-12-06T06:57:48.021Z,101031.00
2022-12-06T07:00:17.104Z,101035.19
2022-12-06T07:02:44.861Z,101031.84
2022-12-06T07:05:12.765Z,101035.88
2022-12-06T07:07:40.526Z,101032.31
2022-12-06T07:10:09.263Z,101027.94
2022-12-06T07:12:38.309Z,101028.66
2022-12-06T07:15:06.937Z,101025.09
2022-12-06T07:17:35.142Z,101028.66
2022-12-06T07:20:03.001Z,101037.44
2022-12-06T07:22:31.019Z,101038.28
2022-12-06T07:24:58.710Z,101038.97
2022-12-06T07:27:26.476Z,101041.75
2022-12-06T07:29:55.617Z,101038.19
2022-12-06T07:32:23.354Z,101035.66
2022-12-06T07:34:51.247Z,101042.50
2022-12-06T07:37:20.473Z,101041.56
2022-12-06T07:39:48.254Z,101041.56
2022-12-06T07:42:33.463Z,101039.13
2022-12-06T07:45:03.399Z,101035.41
2022-12-06T07:47:34.223Z,101037.09
2022-12-06T07:50:02.513Z,101039.53
2022-12-06T07:52:34.286Z,101044.75
2022-12-06T07:55:02.324Z,101042.91
2022-12-06T07:57:30.179Z,101041.38
2022-12-06T07:59:58.338Z,101046.44
2022-12-06T08:02:29.638Z,101045.38
2022-12-06T08:04:57.668Z,101048.75
2022-12-06T08:07:26.233Z,101031.50
2022-12-06T08:09:54.863Z,101043.34
2022-12-06T08:12:23.046Z,101042.56
2022-12-06T08:14:52.337Z,101044.09
2022-12-06T08:17:23.038Z,101049.34
2022-12-06T08:19:52.220Z,101051.97
2022-12-06T08:22:19.970Z,101046.72
2022-12-06T08:24:47.833Z,101053.63
2022-12-06T08:27:15.688Z,101065.63
2022-12-06T08:29:45.166Z,101062.25
2022-12-06T08:32:13.083Z,101063.75
2022-12-06T08:34:40.781Z,101066.22
2022-12-06T08:37:09.901Z,101063.59
2022-12-06T08:39:37.689Z,101067.31
2022-12-06T08:42:06.376Z,101066.97
2022-12-06T08:44:34.104Z,101072.06
2022-12-06T08:47:03.126Z,101068.47
2022-12-06T08:49:31.578Z,101058.66
2022-12-06T08:52:00.333Z,101059.59
2022-12-06T08:54:30.148Z,101061.22
2022-12-06T08:56:57.961Z,101073.03
2022-12-06T08:59:25.867Z,101070.22
2022-12-06T09:01:53.680Z,101068.56
2022-12-06T09:04:21.494Z,101077.91
2022-12-06T09:06:49.259Z,101073.50
2022-12-06T09:09:18.818Z,101069.03
2022-12-06T09:11:50.375Z,101070.81
2022-12-06T09:14:22.170Z,101070.81
2022-12-06T09:16:50.999Z,101060.78
2022-12-06T09:19:19.876Z,101074.88
2022-12-06T09:21:47.629Z,101073.00
2022-12-06T09:24:17.073Z,101072.00
2022-12-06T09:26:44.956Z,101051.88
2022-12-06T09:29:14.450Z,101051.47
2022-12-06T09:31:42.631Z,101073.66
2022-12-06T09:34:11.426Z,101078.03
2022-12-06T09:36:42.411Z,101076.94
2022-12-06T09:39:14.636Z,101090.91
2022-12-06T09:42:15.794Z,101086.34
2022-12-06T09:45:19.331Z,101077.88
2022-12-06T09:48:06.342Z,101086.25
2022-12-06T09:50:44.713Z,101079.47
2022-12-06T09:53:23.754Z,101084.47
2022-12-06T09:56:11.822Z,101083.44
2022-12-06T09:58:55.057Z,101090.38
2022-12-06T10:01:35.663Z,101074.84
2022-12-06T10:04:27.325Z,101091.88
2022-12-06T10:07:07.084Z,101088.50
2022-12-06T10:09:45.977Z,101066.22
2022-12-06T10:12:28.092Z,101090.69
2022-12-06T10:15:17.713Z,101083.56
2022-12-06T10:18:04.489Z,101074.88
2022-12-06T10:20:39.896Z,101084.25
2022-12-06T10:23:17.591Z,101072.91
2022-12-06T10:25:56.748Z,101076.38
2022-12-06T10:28:34.315Z,101072.84
2022-12-06T10:31:09.906Z,101058.38
2022-12-06T10:33:52.263Z,101053.72
2022-12-06T10:36:29.990Z,101059.72
2022-12-06T10:39:05.810Z,101063.16
2022-12-06T10:41:42.372Z,101058.88
2022-12-06T10:44:18.380Z,101065.78
2022-12-06T10:47:06.345Z,101054.47
2022-12-06T10:49:44.571Z,101062.22
2022-12-06T10:52:23.953Z,101058.59
2022-12-06T10:55:03.997Z,101058.66
2022-12-06T10:57:37.462Z,101061.28
2022-12-06T11:00:13.420Z,101055.03
2022-12-06T11:02:49.797Z,101057.66
2022-12-06T11:05:23.203Z,101011.75
2022-12-06T11:07:56.111Z,101047.16
2022-12-06T11:10:29.641Z,101041.91
2022-12-06T11:13:03.016Z,101037.44
2022-12-06T11:15:35.324Z,101038.19
2022-12-06T11:18:06.726Z,101036.41
2022-12-06T11:20:43.358Z,101041.66
2022-12-06T11:23:18.697Z,101033.59
2022-12-06T11:26:02.491Z,101039.69
2022-12-06T11:28:38.562Z,101037.06
2022-12-06T11:31:17.332Z,101040.63
2022-12-06T11:33:46.337Z,101039.88
2022-12-06T11:36:16.165Z,101034.44
2022-12-06T11:38:45.905Z,101038.00
2022-12-06T11:41:22.293Z,101039.97
2022-12-06T11:43:50.809Z,101036.31
2022-12-06T11:46:18.748Z,101035.47
2022-12-06T11:48:46.813Z,101043.06
2022-12-06T11:51:20.823Z,101037.16
2022-12-06T11:54:03.211Z,101043.44
2022-12-06T11:56:33.674Z,101032.94
2022-12-06T11:59:17.049Z,101034.63
2022-12-06T12:01:46.837Z,101040.53
2022-12-06T12:04:26.847Z,101035.09
2022-12-06T12:06:59.539Z,101035.94
2022-12-06T12:09:30.776Z,101031.44
2022-12-06T12:12:03.610Z,101031.44
2022-12-06T12:14:38.288Z,101031.16
2022-12-06T12:17:17.288Z,101035.38
2022-12-06T12:19:48.069Z,101031.75
2022-12-06T12:22:25.132Z,101025.44
2022-12-06T12:27:48.747Z,101020.94
2022-12-06T12:30:23.238Z,101020.19
2022-12-06T12:32:52.620Z,101014.75
2022-12-06T12:35:28.422Z,101011.13
2022-12-06T12:38:00.871Z,101016.19
2022-12-06T12:40:31.906Z,101014.50
2022-12-06T12:43:01.711Z,101019.06
2022-12-06T12:45:30.348Z,101014.69
2022-12-06T12:48:00.191Z,101013.06
2022-12-06T12:50:29.193Z,101019.06
2022-12-06T12:52:58.536Z,101018.16
2022-12-06T12:55:28.430Z,101022.63
2022-12-06T12:57:58.859Z,101017.47
2022-12-06T13:00:30.801Z,101007.84
2022-12-06T13:03:01.036Z,101012.72
2022-12-06T13:05:34.298Z,101013.28
2022-12-06T13:08:12.466Z,101013.28
2022-12-06T13:10:44.351Z,101008.22
2022-12-06T13:13:17.344Z,101012.22
2022-12-06T13:15:48.263Z,101008.75
2022-12-06T13:18:22.240Z,101009.72
2022-12-06T13:20:51.708Z,101016.53
2022-12-06T13:23:23.940Z,101014.38
2022-12-06T13:25:59.408Z,100994.59
2022-12-06T13:28:36.161Z,101009.50
2022-12-06T13:31:11.282Z,100999.22
2022-12-06T13:33:46.654Z,100998.38
2022-12-06T13:36:16.807Z,101008.88
2022-12-06T13:38:45.966Z,101006.34
2022-12-06T13:41:15.273Z,101008.22
2022-12-06T13:43:51.757Z,100999.59
2022-12-06T13:46:37.229Z,101003.16
2022-12-06T13:49:06.892Z,100999.78
2022-12-06T13:51:46.345Z,100992.84
2022-12-06T13:54:33.626Z,101003.25
2022-12-06T13:57:04.118Z,101000.06
2022-12-06T13:59:41.387Z,101001.84
2022-12-06T14:02:50.832Z,100996.22
2022-12-06T14:06:06.013Z,101000.06
2022-12-06T14:08:41.257Z,100995.28
2022-12-06T14:11:17.455Z,101000.19
2022-12-06T14:13:46.954Z,101000.19
2022-12-06T14:16:22.613Z,100998.09
2022-12-06T14:18:51.441Z,100996.22
2022-12-06T14:21:25.848Z,101003.53
2022-12-06T14:23:54.053Z,100994.94
2022-12-06T14:26:27.611Z,100999.50
2022-12-06T14:28:57.760Z,100995.47
2022-12-06T14:31:31.031Z,100998.66
2022-12-06T14:33:58.894Z,101000.72
2022-12-06T14:36:29.916Z,101001.66
2022-12-06T14:39:04.194Z,101006.13
2022-12-06T14:41:55.099Z,101002.78
2022-12-06T14:44:31.115Z,101004.75
2022-12-06T14:46:59.858Z,101003.16
2022-12-06T14:49:47.007Z,101008.59
2022-12-06T14:52:20.031Z,100997.34
2022-12-06T14:54:48.301Z,100994.25
2022-12-06T14:57:27.876Z,101005.38
2022-12-06T15:00:15.290Z,101005.47
2022-12-06T15:03:04.356Z,101003.91
2022-12-06T15:05:38.927Z,100991.91
2022-12-06T15:08:21.045Z,101005.59
2022-12-06T15:10:55.918Z,101002.84
2022-12-06T15:13:24.428Z,101003.91
2022-12-06T15:16:03.761Z,101008.94
2022-12-06T15:18:34.158Z,101008.31
2022-12-06T15:21:01.856Z,101005.75
2022-12-06T15:23:37.114Z,101004.84
2022-12-06T15:26:06.749Z,101001.38
2022-12-06T15:28:36.630Z,101000.34
2022-12-06T15:31:04.816Z,100999.50
2022-12-06T15:33:32.697Z,100979.72
2022-12-06T15:36:00.559Z,100993.41
2022-12-06T15:38:28.266Z,100996.03
2022-12-06T15:40:56.796Z,100999.69
2022-12-06T15:43:28.858Z,101003.91
2022-12-06T15:46:00.320Z,100996.97
2022-12-06T15:48:29.071Z,100999.59
2022-12-06T15:50:56.991Z,100989.19
2022-12-06T15:53:26.484Z,100990.13
2022-12-06T15:55:54.577Z,101000.34
2022-12-06T15:58:23.057Z,100992.56
2022-12-06T16:00:51.436Z,101003.91
2022-12-06T16:03:20.530Z,100999.41
2022-12-06T16:05:48.271Z,101003.06
2022-12-06T16:08:16.107Z,100997.81
2022-12-06T16:11:10.832Z,100995.09
2022-12-06T16:13:31.614Z,101000.34
2022-12-06T16:15:59.371Z,100999.50
2022-12-06T16:18:28.785Z,100998.66
2022-12-06T16:20:56.642Z,100989.94
2022-12-06T16:24:12.067Z,100989.09
2022-12-06T16:26:34.541Z,100991.72
2022-12-06T16:29:04.265Z,100997.72
2022-12-06T16:31:38.445Z,101000.53
2022-12-06T16:34:11.127Z,100993.19
2022-12-06T16:36:55.241Z,100996.66
2022-12-06T16:39:23.057Z,100996.78
2022-12-06T16:41:50.829Z,101004.66
2022-12-06T16:44:18.682Z,101001.19
2022-12-06T16:46:46.680Z,100994.97
2022-12-06T16:52:06.413Z,100990.59
2022-12-06T16:54:34.143Z,100989.75
2022-12-06T16:57:01.844Z,100992.19
2022-12-06T16:59:29.541Z,100983.56
2022-12-06T17:01:57.294Z,100993.88
2022-12-06T17:04:30.688Z,100981.69
2022-12-06T17:06:58.371Z,100985.16
2022-12-06T17:09:26.161Z,100997.72
2022-12-06T17:12:06.844Z,100988.81
2022-12-06T17:14:36.247Z,100984.69
2022-12-06T17:17:04.347Z,100986.31
2022-12-06T17:19:34.640Z,100983.09
2022-12-06T17:22:03.309Z,100982.00
2022-12-06T17:24:31.047Z,100984.63
2022-12-06T17:26:59.079Z,100990.69
2022-12-06T17:29:27.188Z,100992.19
2022-12-06T17:31:55.617Z,100976.16
2022-12-06T17:34:25.708Z,100985.25
2022-12-06T17:36:57.353Z,100986.09
2022-12-06T17:39:25.061Z,100978.97
2022-12-06T17:42:10.127Z,100977.28
2022-12-06T17:44:39.630Z,100958.84
2022-12-06T17:47:07.629Z,100973.91
2022-12-06T17:49:36.177Z,100969.59
2022-12-06T17:52:05.733Z,100965.31
2022-12-06T17:54:33.502Z,100966.13
2022-12-06T17:57:01.484Z,100951.72
2022-12-06T17:59:31.958Z,100964.47
2022-12-06T18:02:17.369Z,100964.34
2022-12-06T18:04:46.545Z,100968.59
2022-12-06T18:07:17.181Z,100962.41
2022-12-06T18:09:45.656Z,100967.75
2022-12-06T18:12:15.123Z,100963.44
2022-12-06T18:14:42.923Z,100960.09
2022-12-06T18:17:10.760Z,100964.00
2022-12-06T18:19:40.371Z,100968.50
2022-12-06T18:22:08.205Z,100963.25
2022-12-06T18:24:37.661Z,100968.66
2022-12-06T18:27:06.269Z,100971.28
2022-12-06T18:29:34.899Z,100959.88
2022-12-06T18:32:03.523Z,100964.19
2022-12-06T18:34:31.826Z,100969.44
2022-12-06T18:36:59.588Z,100964.19
2022-12-06T18:39:27.838Z,100953.69
2022-12-06T18:41:56.969Z,100977.28
2022-12-06T18:44:25.446Z,100972.81
2022-12-06T18:46:53.192Z,100980.66
2022-12-06T18:49:21.237Z,100972.22
2022-12-06T18:51:49.025Z,100975.59
2022-12-06T18:54:16.742Z,100976.00
2022-12-06T18:56:44.553Z,100971.19
2022-12-06T18:59:13.723Z,100971.38
2022-12-06T19:01:42.402Z,100974.66
2022-12-06T19:04:14.276Z,100938.13
2022-12-06T19:06:43.402Z,100976.53
2022-12-06T19:09:13.329Z,100964.34
2022-12-06T19:11:42.892Z,100962.78
2022-12-06T19:14:10.749Z,100940.03
2022-12-06T19:16:41.808Z,100966.97
2022-12-06T19:19:16.281Z,100963.34
2022-12-06T19:21:45.731Z,100963.44
2022-12-06T19:24:15.906Z,100963.44
2022-12-06T19:26:43.950Z,100934.03
2022-12-06T19:29:11.726Z,100957.34
2022-12-06T19:31:41.141Z,100961.94
2022-12-06T19:34:14.924Z,100969.06
2022-12-06T19:36:42.678Z,100961.75
2022-12-06T19:39:11.334Z,100961.28
2022-12-06T19:41:59.193Z,100959.41
2022-12-06T19:44:26.533Z,100966.97
2022-12-06T19:46:55.746Z,100967.94
2022-12-06T19:49:25.751Z,100961.66
2022-12-06T19:51:53.685Z,100955.47
2022-12-06T19:54:23.658Z,100953.16
2022-12-06T19:56:53.973Z,100948.63
2022-12-06T19:59:21.981Z,100957.16
2022-12-06T20:01:50.285Z,100961.75
2022-12-06T20:04:22.587Z,100934.69
2022-12-06T20:06:50.893Z,100960.91
2022-12-06T20:09:19.208Z,100946.41
2022-12-06T20:12:02.534Z,100953.16
2022-12-06T20:14:33.956Z,100947.78
2022-12-06T20:17:02.396Z,100949.38
2022-12-06T20:19:31.472Z,100953.03
2022-12-06T20:21:59.241Z,100953.16
2022-12-06T20:24:26.946Z,100950.72
2022-12-06T20:26:55.880Z,100953.16
2022-12-06T20:29:24.018Z,100925.97
2022-12-06T20:31:52.124Z,100931.41
2022-12-06T20:34:20.517Z,100948.25
2022-12-06T20:36:49.565Z,100955.03
2022-12-06T20:39:20.836Z,100942.84
2022-12-06T20:41:49.687Z,100952.41
2022-12-06T20:44:18.756Z,100924.09
2022-12-06T20:46:47.084Z,100933.19
2022-12-06T20:49:16.221Z,100944.34
2022-12-06T20:51:48.081Z,100932.34
2022-12-06T20:54:20.574Z,100937.59
2022-12-06T20:56:51.352Z,100941.81
2022-12-06T20:59:19.389Z,100928.88
2022-12-06T21:01:47.384Z,100916.22
2022-12-06T21:04:16.307Z,100930.28
2022-12-06T21:06:44.121Z,100933.88
2022-12-06T21:09:12.200Z,100930.50
2022-12-06T21:11:41.624Z,100925.44
2022-12-06T21:14:12.240Z,100932.19
2022-12-06T21:16:41.578Z,100928.97
2022-12-06T21:19:12.723Z,100922.06
2022-12-06T21:21:42.434Z,100922.22
2022-12-06T21:24:12.904Z,100907.53
2022-12-06T21:26:42.192Z,100911.94
2022-12-06T21:29:15.175Z,100899.56
2022-12-06T21:31:42.969Z,100916.63
2022-12-06T21:34:11.714Z,100916.44
2022-12-06T21:36:39.554Z,100905.00
2022-12-06T21:39:07.925Z,100913.81
2022-12-06T21:41:35.680Z,100913.16
2022-12-06T21:44:04.796Z,100907.75
2022-12-06T21:46:32.596Z,100914.38
2022-12-06T21:49:01.482Z,100905.00
2022-12-06T21:51:31.248Z,100905.00
2022-12-06T21:53:59.644Z,100904.53
2022-12-06T21:56:29.222Z,100912.97
2022-12-06T21:58:59.834Z,100912.69
2022-12-06T22:01:31.117Z,100911.09
2022-12-06T22:04:01.464Z,100920.38
2022-12-06T22:06:29.173Z,100914.28
2022-12-06T22:08:59.286Z,100925.59
2022-12-06T22:11:27.537Z,100918.69
2022-12-06T22:13:55.331Z,100916.81
2022-12-06T22:16:23.124Z,100920.72
2022-12-06T22:18:54.886Z,100924.84
2022-12-06T22:21:25.250Z,100919.53
2022-12-06T22:23:53.544Z,100921.97
2022-12-06T22:26:23.235Z,100918.31
2022-12-06T22:28:51.649Z,100916.06
2022-12-06T22:31:21.614Z,100907.75
2022-12-06T22:33:50.320Z,100921.69
2022-12-06T22:36:20.923Z,100919.34
2022-12-06T22:38:49.777Z,100912.69
2022-12-06T22:41:18.289Z,100923.16
2022-12-06T22:43:46.150Z,100918.84
2022-12-06T22:46:16.513Z,100904.91
2022-12-06T22:48:44.640Z,100917.47
2022-12-06T22:51:14.491Z,100915.50
2022-12-06T22:53:45.485Z,100893.97
2022-12-06T22:56:14.161Z,100908.84
2022-12-06T22:58:41.976Z,100904.63
2022-12-06T23:01:16.078Z,100902.28
2022-12-06T23:03:45.552Z,100915.88
2022-12-06T23:06:17.443Z,100888.41
2022-12-06T23:08:46.914Z,100911.56
2022-12-06T23:11:16.654Z,100903.97
2022-12-06T23:13:45.045Z,100877.84
2022-12-06T23:16:15.153Z,100897.88
2022-12-06T23:18:43.644Z,100902.38
2022-12-06T23:21:14.205Z,100894.31
2022-12-06T23:23:43.801Z,100892.84
2022-12-06T23:26:15.459Z,100892.56
2022-12-06T23:28:43.662Z,100884.88
2022-12-06T23:31:13.639Z,100871.69
2022-12-06T23:33:42.096Z,100886.56
2022-12-06T23:36:12.494Z,100869.81
2022-12-06T23:38:40.688Z,100895.16
2022-12-06T23:41:09.648Z,100879.19
2022-12-06T23:43:39.730Z,100900.91
2022-12-06T23:46:08.896Z,100899.38
2022-12-06T23:48:37.541Z,100889.94
2022-12-06T23:51:07.155Z,100886.38
2022-12-06T23:53:35.718Z,100882.81
2022-12-06T23:56:07.136Z,100881.97
2022-12-06T23:58:35.675Z,100880.09
